Flight Track Log - Related Links

Times and Time Zones

All times are in EDT time to prevent confusion due to time zone crossing. See the RPA3436 flight status page for this flight to view local times or setup timezone preferences in your user account.

Time Position Orientation Groundspeed Altitude Reporting Facility
EDT Latitude Longitude Course Direction KTS MPH feet Rate Location/Type
Tue 10:13:52 AM 38.8000 -77.0333 90° East 159 183 2,300  Level Potomac TRACON
Tue 10:14:52 AM 38.7667 -76.9833 131° Southeast 261 300 4,800 2,900 Climbing Potomac TRACON
Tue 10:15:52 AM 38.8167 -76.9167 46° Northeast 313 360 8,100 3,208 Climbing Potomac TRACON
Tue 10:16:33 AM 38.8692 -76.8633 38° Northeast 332 382 10,200 2,851 Climbing Washington Center
Tue 10:17:33 AM 38.9428 -76.7819 41° Northeast 337 388 12,900 2,678 Climbing Washington Center
Tue 10:18:34 AM 38.9939 -76.6681 60° Northeast 342 394 15,600 2,450 Climbing Washington Center
Tue 10:19:00 AM 39.1167 -76.2766 90° East  Level FlightAware Approximate
Tue 10:19:33 AM 39.0367 -76.5483 65° Northeast 354 407 17,800  Level Washington Center
Tue 10:20:34 AM 39.0836 -76.4178 65° Northeast 373 429 19,900 2,083 Climbing Washington Center
Tue 10:21:34 AM 39.1303 -76.2819 66° East 390 449 22,000 1,563 Climbing Washington Center
Tue 10:22:33 AM 39.1600 -76.1511 74° East 405 466 23,000 605 Climbing Washington Center
Tue 10:23:33 AM 39.1794 -76.0039 80° East 411 473 23,200 843 Climbing Washington Center
Tue 10:24:34 AM 39.2131 -75.8594 73° East 416 479 24,700 1,574 Climbing Washington Center
Tue 10:25:35 AM 39.3008 -75.7444 45° Northeast 419 482 26,400 1,624 Climbing Washington Center
Tue 10:26:47 AM 39.4072 -75.6050 45° Northeast 434 499 28,300 1,708 Climbing Washington Center
Tue 10:27:45 AM 39.4947 -75.4919 45° Northeast 440 506 30,100 1,508 Climbing Washington Center
Tue 10:29:54 AM 39.6869 -75.2383 45° Northeast 451 519 33,000 935 Climbing New York Center
Tue 10:30:51 AM 39.7667 -75.1164 50° Northeast 440 506 33,000  Level New York Center
Tue 10:31:52 AM 39.8436 -75.0103 47° Northeast 446 513 33,000  Level New York Center
Tue 10:32:52 AM 39.9247 -74.8933 48° Northeast 446 513 33,000  Level New York Center
Tue 10:33:54 AM 40.0081 -74.7736 48° Northeast 441 507 33,000  Level New York Center
Tue 10:34:52 AM 40.1000 -74.6433 47° Northeast 441 507 33,000  Level New York Center
Tue 10:35:53 AM 40.1722 -74.5386 48° Northeast 435 501 33,000  Level New York Center
Tue 10:36:53 AM 40.2653 -74.4294 42° Northeast 441 507 33,000  Level New York Center
Tue 10:37:54 AM 40.3600 -74.3283 39° Northeast 436 502 33,000 -559 Level New York Center
Tue 10:38:51 AM 40.4547 -74.2267 39° Northeast 436 502 31,900 -2,067 Descending New York Center
Tue 10:39:53 AM 40.5494 -74.1222 40° Northeast 436 502 28,900 -2,951 Descending New York Center
Tue 10:40:53 AM 40.6461 -74.0175 39° Northeast 436 502 25,900 -1,719 Descending New York Center
Tue 10:42:44 AM 40.8353 -73.8172 39° Northeast 431 496 24,000 -842 Descending Boston Center
Tue 10:43:44 AM 40.9219 -73.7092 43° Northeast 426 490 23,500 -500 Descending Boston Center
Tue 10:44:44 AM 41.0086 -73.6036 43° Northeast 426 490 23,000 -250 Descending Boston Center
Tue 10:45:44 AM 41.0972 -73.4950 43° Northeast 421 484 23,000  Level Boston Center
Tue 10:46:44 AM 41.1836 -73.3861 43° Northeast 421 484 23,000 -500 Level Boston Center
Tue 10:47:44 AM 41.2719 -73.2797 42° Northeast 421 484 22,000 -1,050 Descending Boston Center
Tue 10:48:44 AM 41.3786 -73.2258 21° North 408 470 20,900 -1,250 Descending Boston Center
Tue 10:49:44 AM 41.4825 -73.2603 346° North 374 430 19,500 -1,450 Descending Boston Center
Tue 10:50:44 AM 41.5883 -73.3061 342° North 367 422 18,000 -2,000 Descending Boston Center
Tue 10:51:44 AM 41.6819 -73.3461 342° North 367 422 15,500 -2,400 Descending Boston Center
Tue 10:52:44 AM 41.7733 -73.3836 343° North 354 407 13,200 -1,700 Descending Boston Center
Tue 10:53:44 AM 41.8356 -73.4097 343° North 341 392 12,100 -1,282 Descending Boston Center
Tue 10:54:27 AM 41.9208 -73.4472 342° North 340 391 11,000 -641 Descending Boston Center
Tue 10:55:27 AM 42.0161 -73.4881 342° North 328 377 11,000  Level Boston Center
Tue 10:56:44 AM 42.1158 -73.5261 344° North 325 374 11,000  Level Boston Center
Tue 10:57:29 AM 42.1953 -73.5133 North 338 389 11,000 -686 Level Boston Center
Tue 10:58:29 AM 42.2828 -73.5064 North 311 358 9,800 -1,537 Descending Boston Center
Tue 10:59:30 AM 42.3469 -73.5694 324° Northwest 276 318 7,900 -1,820 Descending Boston Center
Tue 11:00:31 AM 42.4044 -73.6322 321° Northwest 276 318 6,100 -1,785 Descending Boston Center
Tue 11:01:31 AM 42.4664 -73.7008 321° Northwest 277 319 4,300 -1,409 Descending Boston Center
Tue 11:02:26 AM 42.5178 -73.7583 320° Northwest 265 305 3,400 -887 Descending Boston Center
Tue 11:03:26 AM 42.5714 -73.8047 327° Northwest 228 262 2,600 -800 Descending Boston Center

Login

Don't have an account? Register now (free) for customized features, flight alerts, and more!